Flight Track Log - Related Links

Times and Time Zones

All times are in EDT time to prevent confusion due to time zone crossing. See the LXJ541 flight status page for this flight to view local times or setup timezone preferences in your user account.

Time Position Orientation Groundspeed Altitude Reporting Facility
EDT Latitude Longitude Course Direction KTS MPH feet Rate Location/Type
Sun 03:32:15 PM 42.4667 -71.3000 251° West 149 171 1,000  Level KA90
Sun 03:33:27 PM 42.4500 -71.3667 251° West 203 234 2,700 1,537 Climbing KA90
Sun 03:34:16 PM 42.4000 -71.3500 166° South 237 273 4,100 3,757 Climbing KA90
Sun 03:35:22 PM 42.3333 -71.2833 144° Southeast 289 333 9,900 3,810 Climbing KA90
Sun 03:36:22 PM 42.2500 -71.2000 143° Southeast 370 426 12,100 1,872 Climbing KA90
Sun 03:37:27 PM 42.1697 -71.1094 140° Southeast 419 482 13,800 912 Climbing Boston Center
Sun 03:38:27 PM 42.0872 -71.0189 141° Southeast 385 443 14,000 100 Climbing Boston Center
Sun 03:39:27 PM 42.0006 -70.9258 141° Southeast 391 450 14,000  Level Boston Center
Sun 03:40:27 PM 41.9181 -70.8386 142° Southeast 391 450 14,000  Level Boston Center
Sun 03:41:27 PM 41.8275 -70.7769 153° Southeast 367 422 14,000  Level Boston Center
Sun 03:42:27 PM 41.7303 -70.8183 198° South 329 379 14,000  Level Boston Center
Sun 03:43:27 PM 41.6347 -70.8403 190° South 342 394 14,000  Level Boston Center
Sun 03:44:27 PM 41.5472 -70.8508 185° South 350 403 14,000  Level Boston Center
Sun 03:45:27 PM 41.4350 -70.8783 190° South 362 417 14,000  Level Boston Center
Sun 03:46:27 PM 41.3394 -70.9003 190° South 367 422 14,000  Level Boston Center
Sun 03:47:27 PM 41.2781 -70.9844 226° Southwest 319 367 14,000  Level Boston Center
Sun 03:48:27 PM 41.2544 -71.0983 255° West 315 362 14,000  Level Boston Center
Sun 03:49:27 PM 41.2369 -71.2033 258° West 329 379 14,000  Level Boston Center
Sun 03:50:27 PM 41.2133 -71.3308 256° West 329 379 14,000  Level Boston Center
Sun 03:51:27 PM 41.1956 -71.4358 257° West 329 379 14,000  Level Boston Center
Sun 03:52:27 PM 41.1694 -71.5633 255° West 329 379 14,000  Level Boston Center
Sun 03:53:27 PM 41.1597 -71.6572 262° West 314 361 14,000  Level Boston Center
Sun 03:54:27 PM 41.1439 -71.7647 259° West 282 325 14,000  Level Boston Center
Sun 03:55:27 PM 41.1358 -71.8531 263° West 276 318 14,000  Level Boston Center
Sun 03:56:27 PM 41.1197 -71.9469 257° West 276 318 14,000  Level Boston Center
Sun 03:57:27 PM 41.1075 -72.0461 261° West 276 318 14,000  Level Boston Center
Sun 03:58:27 PM 41.0933 -72.1428 259° West 276 318 14,000  Level Boston Center
Sun 03:59:27 PM 41.0706 -72.2392 253° West 276 318 14,000  Level Boston Center
Sun 04:00:27 PM 41.0458 -72.3328 251° West 276 318 14,000  Level Boston Center
Sun 04:01:27 PM 41.0042 -72.4181 237° Southwest 276 318 14,000  Level Boston Center
Sun 04:02:27 PM 40.9603 -72.5061 237° Southwest 282 325 14,000  Level Boston Center
Sun 04:03:27 PM 40.9164 -72.5883 235° Southwest 282 325 14,000 -250 Level Boston Center
Sun 04:04:27 PM 40.8683 -72.6872 237° Southwest 293 337 13,500 -950 Descending Boston Center
Sun 04:05:08 PM 40.8333 -72.7333 225° Southwest 276 318 12,400 -953 Descending New York TRACON
Sun 04:06:14 PM 40.7833 -72.8333 237° Southwest 286 329 11,800 -1,190 Descending New York TRACON
Sun 04:07:14 PM 40.7500 -72.9167 242° Southwest 278 320 9,900 -1,684 Descending New York TRACON
Sun 04:08:08 PM 40.7167 -73.0000 242° Southwest 271 312 8,600 -1,895 Descending New York TRACON
Sun 04:09:08 PM 40.6833 -73.1000 246° West 279 321 6,300 -1,750 Descending New York TRACON
Sun 04:10:08 PM 40.6667 -73.1833 255° West 272 313 5,100 -650 Descending New York TRACON
Sun 04:11:08 PM 40.6167 -73.2667 232° Southwest 279 321 5,000 -500 Descending New York TRACON
Sun 04:12:08 PM 40.5667 -73.3333 225° Southwest 255 293 4,100 -476 Descending New York TRACON
Sun 04:13:14 PM 40.5167 -73.4000 225° Southwest 233 268 4,000 -48 Descending New York TRACON
Sun 04:14:14 PM 40.5167 -73.4667 270° West 195 224 4,000 -368 Level New York TRACON
Sun 04:15:08 PM 40.5500 -73.4833 339° North 172 198 3,300 -526 Descending New York TRACON
Sun 04:16:08 PM 40.5667 -73.5500 288° West 194 223 3,000 -150 Descending New York TRACON
Sun 04:17:08 PM 40.5833 -73.6167 288° West 176 203 3,000 -500 Level New York TRACON
Sun 04:18:08 PM 40.6000 -73.6667 294° West 188 216 2,000 -1,000 Descending New York TRACON
Sun 04:19:08 PM 40.6333 -73.7167 311° West 155 178 1,000 -1,000 Descending New York TRACON
Sun 04:21:00 PM 40.6333 -73.7667 296° West  Level FlightAware Approximate
Sun 04:28:00 PM 40.6398 -73.7789 296° West  Level Estimated
Sun 04:29:00 PM 40.6398 -73.7789 296° West  Level Estimated

Login

Don't have an account? Register now (free) for customized features, flight alerts, and more!